sensor_id;sensor_type;location;lat;lon;timestamp;pressure;altitude;pressure_sealevel;temperature;humidity
57990;BME280;58373;51.824;5.564;2023-04-06T00:02:07;101759.38;;;4.15;57.82
57990;BME280;58373;51.824;5.564;2023-04-06T00:04:32;101752.59;;;4.14;57.41
57990;BME280;58373;51.824;5.564;2023-04-06T00:06:58;101756.88;;;4.14;57.59
57990;BME280;58373;51.824;5.564;2023-04-06T00:09:23;101754.25;;;4.15;57.63
57990;BME280;58373;51.824;5.564;2023-04-06T00:11:48;101745.78;;;4.13;57.38
57990;BME280;58373;51.824;5.564;2023-04-06T00:14:13;101753.50;;;4.13;57.51
57990;BME280;58373;51.824;5.564;2023-04-06T00:16:40;101756.06;;;4.13;57.49
57990;BME280;58373;51.824;5.564;2023-04-06T00:19:05;101742.56;;;4.08;57.32
57990;BME280;58373;51.824;5.564;2023-04-06T00:21:31;101738.34;;;4.07;57.28
57990;BME280;58373;51.824;5.564;2023-04-06T00:23:58;101737.53;;;4.05;57.59
57990;BME280;58373;51.824;5.564;2023-04-06T00:26:23;101740.16;;;4.04;57.90
57990;BME280;58373;51.824;5.564;2023-04-06T00:28:48;101737.69;;;4.02;57.82
57990;BME280;58373;51.824;5.564;2023-04-06T00:31:15;101729.19;;;4.00;57.52
57990;BME280;58373;51.824;5.564;2023-04-06T00:33:40;101732.66;;;3.99;57.81
57990;BME280;58373;51.824;5.564;2023-04-06T00:36:05;101741.34;;;3.95;57.61
57990;BME280;58373;51.824;5.564;2023-04-06T00:38:31;101727.88;;;3.90;57.99
57990;BME280;58373;51.824;5.564;2023-04-06T00:40:56;101731.31;;;3.89;57.88
57990;BME280;58373;51.824;5.564;2023-04-06T00:43:21;101724.53;;;3.88;57.87
57990;BME280;58373;51.824;5.564;2023-04-06T00:45:47;101720.31;;;3.87;57.81
57990;BME280;58373;51.824;5.564;2023-04-06T00:48:12;101717.06;;;3.82;58.17
57990;BME280;58373;51.824;5.564;2023-04-06T00:50:38;101717.16;;;3.80;57.94
57990;BME280;58373;51.824;5.564;2023-04-06T00:53:03;101711.28;;;3.77;58.06
57990;BME280;58373;51.824;5.564;2023-04-06T00:55:28;101709.63;;;3.76;57.80
57990;BME280;58373;51.824;5.564;2023-04-06T00:57:54;101716.56;;;3.73;57.90
57990;BME280;58373;51.824;5.564;2023-04-06T01:00:19;101713.19;;;3.71;58.40
57990;BME280;58373;51.824;5.564;2023-04-06T01:02:45;101709.84;;;3.69;58.48
57990;BME280;58373;51.824;5.564;2023-04-06T01:05:11;101706.63;;;3.64;58.35
57990;BME280;58373;51.824;5.564;2023-04-06T01:07:37;101702.50;;;3.60;58.92
57990;BME280;58373;51.824;5.564;2023-04-06T01:10:02;101700.06;;;3.57;58.75
57990;BME280;58373;51.824;5.564;2023-04-06T01:12:27;101691.59;;;3.55;58.88
57990;BME280;58373;51.824;5.564;2023-04-06T01:14:53;101694.22;;;3.54;58.86
57990;BME280;58373;51.824;5.564;2023-04-06T01:17:18;101688.38;;;3.50;58.85
57990;BME280;58373;51.824;5.564;2023-04-06T01:19:43;101687.59;;;3.48;58.66
57990;BME280;58373;51.824;5.564;2023-04-06T01:22:13;101688.59;;;3.44;58.88
57990;BME280;58373;51.824;5.564;2023-04-06T01:24:38;101681.13;;;3.38;58.79
57990;BME280;58373;51.824;5.564;2023-04-06T01:27:04;101688.06;;;3.36;58.81
57990;BME280;58373;51.824;5.564;2023-04-06T01:29:29;101681.19;;;3.36;59.39
57990;BME280;58373;51.824;5.564;2023-04-06T01:31:54;101675.25;;;3.36;59.06
57990;BME280;58373;51.824;5.564;2023-04-06T01:34:20;101668.44;;;3.35;59.42
57990;BME280;58373;51.824;5.564;2023-04-06T01:36:45;101668.53;;;3.32;58.92
57990;BME280;58373;51.824;5.564;2023-04-06T01:39:11;101665.31;;;3.27;58.98
57990;BME280;58373;51.824;5.564;2023-04-06T01:41:36;101667.13;;;3.25;59.10
57990;BME280;58373;51.824;5.564;2023-04-06T01:44:01;101665.53;;;3.20;59.57
57990;BME280;58373;51.824;5.564;2023-04-06T01:46:27;101664.78;;;3.18;58.83
57990;BME280;58373;51.824;5.564;2023-04-06T01:48:52;101659.88;;;3.12;59.21
57990;BME280;58373;51.824;5.564;2023-04-06T01:51:17;101655.66;;;3.11;59.25
57990;BME280;58373;51.824;5.564;2023-04-06T01:53:43;101657.41;;;3.09;59.19
57990;BME280;58373;51.824;5.564;2023-04-06T01:56:08;101654.94;;;3.08;59.62
57990;BME280;58373;51.824;5.564;2023-04-06T01:58:33;101659.22;;;3.07;59.48
57990;BME280;58373;51.824;5.564;2023-04-06T02:00:58;101652.44;;;3.06;59.24
57990;BME280;58373;51.824;5.564;2023-04-06T02:03:24;101649.09;;;3.04;59.72
57990;BME280;58373;51.824;5.564;2023-04-06T02:05:49;101645.72;;;3.02;60.16
57990;BME280;58373;51.824;5.564;2023-04-06T02:08:15;101641.59;;;2.98;59.83
57990;BME280;58373;51.824;5.564;2023-04-06T02:10:40;101635.63;;;2.99;60.01
57990;BME280;58373;51.824;5.564;2023-04-06T02:13:05;101634.66;;;3.02;60.03
57990;BME280;58373;51.824;5.564;2023-04-06T02:15:30;101625.22;;;3.02;60.36
57990;BME280;58373;51.824;5.564;2023-04-06T02:17:56;101629.53;;;3.02;60.12
57990;BME280;58373;51.824;5.564;2023-04-06T02:20:22;101620.09;;;3.02;59.83
57990;BME280;58373;51.824;5.564;2023-04-06T02:22:47;101619.34;;;3.00;60.31
57990;BME280;58373;51.824;5.564;2023-04-06T02:25:12;101613.41;;;2.98;60.08
57990;BME280;58373;51.824;5.564;2023-04-06T02:27:37;101618.53;;;2.98;60.17
57990;BME280;58373;51.824;5.564;2023-04-06T02:30:03;101622.00;;;2.97;60.45
57990;BME280;58373;51.824;5.564;2023-04-06T02:32:28;101619.50;;;2.96;60.20
57990;BME280;58373;51.824;5.564;2023-04-06T02:34:53;101615.34;;;2.93;60.54
57990;BME280;58373;51.824;5.564;2023-04-06T02:37:19;101612.81;;;2.91;59.98
57990;BME280;58373;51.824;5.564;2023-04-06T02:39:44;101612.78;;;2.93;61.16
57990;BME280;58373;51.824;5.564;2023-04-06T02:42:10;101605.09;;;2.93;60.38
57990;BME280;58373;51.824;5.564;2023-04-06T02:44:35;101597.41;;;2.93;60.68
57990;BME280;58373;51.824;5.564;2023-04-06T02:47:00;101605.88;;;2.95;60.37
57990;BME280;58373;51.824;5.564;2023-04-06T02:49:26;101604.97;;;2.96;60.91
57990;BME280;58373;51.824;5.564;2023-04-06T02:51:51;101593.06;;;2.95;60.98
57990;BME280;58373;51.824;5.564;2023-04-06T02:54:16;101596.50;;;2.94;60.46
57990;BME280;58373;51.824;5.564;2023-04-06T02:56:41;101592.38;;;2.90;60.40
57990;BME280;58373;51.824;5.564;2023-04-06T02:59:07;101588.03;;;2.92;60.56
57990;BME280;58373;51.824;5.564;2023-04-06T03:01:32;101584.59;;;2.93;61.15
57990;BME280;58373;51.824;5.564;2023-04-06T03:03:57;101582.91;;;2.92;60.68
57990;BME280;58373;51.824;5.564;2023-04-06T03:06:22;101581.25;;;2.91;60.95
57990;BME280;58373;51.824;5.564;2023-04-06T03:08:48;101581.25;;;2.91;61.09
57990;BME280;58373;51.824;5.564;2023-04-06T03:11:13;101583.03;;;2.89;61.05
57990;BME280;58373;51.824;5.564;2023-04-06T03:13:38;101589.94;;;2.87;60.84
57990;BME280;58373;51.824;5.564;2023-04-06T03:16:04;101574.69;;;2.84;61.29
57990;BME280;58373;51.824;5.564;2023-04-06T03:18:29;101578.97;;;2.83;61.29
57990;BME280;58373;51.824;5.564;2023-04-06T03:20:55;101574.78;;;2.81;61.10
57990;BME280;58373;51.824;5.564;2023-04-06T03:23:20;101571.38;;;2.80;61.36
57990;BME280;58373;51.824;5.564;2023-04-06T03:25:46;101572.22;;;2.81;61.58
57990;BME280;58373;51.824;5.564;2023-04-06T03:28:11;101571.44;;;2.79;62.34
57990;BME280;58373;51.824;5.564;2023-04-06T03:30:36;101568.06;;;2.78;62.05
57990;BME280;58373;51.824;5.564;2023-04-06T03:33:01;101568.00;;;2.80;61.85
57990;BME280;58373;51.824;5.564;2023-04-06T03:35:27;101573.13;;;2.80;62.17
57990;BME280;58373;51.824;5.564;2023-04-06T03:37:52;101570.56;;;2.80;62.35
57990;BME280;58373;51.824;5.564;2023-04-06T03:40:17;101564.66;;;2.78;62.21
57990;BME280;58373;51.824;5.564;2023-04-06T03:42:42;101564.66;;;2.78;62.82
57990;BME280;58373;51.824;5.564;2023-04-06T03:45:08;101566.31;;;2.79;62.55
57990;BME280;58373;51.824;5.564;2023-04-06T03:47:33;101562.03;;;2.79;62.65
57990;BME280;58373;51.824;5.564;2023-04-06T03:49:58;101562.16;;;2.76;62.48
57990;BME280;58373;51.824;5.564;2023-04-06T03:52:23;101549.34;;;2.76;62.93
57990;BME280;58373;51.824;5.564;2023-04-06T03:54:49;101550.19;;;2.77;63.21
57990;BME280;58373;51.824;5.564;2023-04-06T03:57:14;101545.84;;;2.79;62.71
57990;BME280;58373;51.824;5.564;2023-04-06T03:59:39;101554.28;;;2.81;63.22
57990;BME280;58373;51.824;5.564;2023-04-06T04:02:05;101554.28;;;2.81;63.71
57990;BME280;58373;51.824;5.564;2023-04-06T04:04:30;101554.28;;;2.81;63.50
57990;BME280;58373;51.824;5.564;2023-04-06T04:06:55;101560.28;;;2.81;63.11
57990;BME280;58373;51.824;5.564;2023-04-06T04:09:20;101549.16;;;2.81;63.81
57990;BME280;58373;51.824;5.564;2023-04-06T04:11:46;101555.09;;;2.83;63.51
57990;BME280;58373;51.824;5.564;2023-04-06T04:14:11;101559.31;;;2.84;63.32
57990;BME280;58373;51.824;5.564;2023-04-06T04:16:36;101557.66;;;2.83;63.44
57990;BME280;58373;51.824;5.564;2023-04-06T04:19:01;101554.19;;;2.84;63.88
57990;BME280;58373;51.824;5.564;2023-04-06T04:21:28;101558.47;;;2.83;63.38
57990;BME280;58373;51.824;5.564;2023-04-06T04:23:55;101551.63;;;2.84;63.21
57990;BME280;58373;51.824;5.564;2023-04-06T04:26:20;101561.03;;;2.83;63.56
57990;BME280;58373;51.824;5.564;2023-04-06T04:28:45;101561.88;;;2.84;63.32
57990;BME280;58373;51.824;5.564;2023-04-06T04:31:11;101559.31;;;2.84;63.60
57990;BME280;58373;51.824;5.564;2023-04-06T04:33:36;101555.16;;;2.81;63.70
57990;BME280;58373;51.824;5.564;2023-04-06T04:36:01;101558.66;;;2.79;64.69
57990;BME280;58373;51.824;5.564;2023-04-06T04:38:27;101547.72;;;2.74;64.67
57990;BME280;58373;51.824;5.564;2023-04-06T04:40:52;101550.06;;;2.80;64.02
57990;BME280;58373;51.824;5.564;2023-04-06T04:43:17;101546.66;;;2.79;64.70
57990;BME280;58373;51.824;5.564;2023-04-06T04:45:42;101552.63;;;2.80;64.89
57990;BME280;58373;51.824;5.564;2023-04-06T04:48:08;101549.16;;;2.81;64.21
57990;BME280;58373;51.824;5.564;2023-04-06T04:50:33;101548.22;;;2.83;64.43
57990;BME280;58373;51.824;5.564;2023-04-06T04:52:59;101549.06;;;2.84;64.77
57990;BME280;58373;51.824;5.564;2023-04-06T04:55:24;101553.28;;;2.85;64.59
57990;BME280;58373;51.824;5.564;2023-04-06T04:57:50;101545.59;;;2.85;64.55
57990;BME280;58373;51.824;5.564;2023-04-06T05:00:15;101545.59;;;2.85;64.49
57990;BME280;58373;51.824;5.564;2023-04-06T05:02:40;101548.09;;;2.86;64.91
57990;BME280;58373;51.824;5.564;2023-04-06T05:05:06;101546.50;;;2.84;64.97
57990;BME280;58373;51.824;5.564;2023-04-06T05:07:31;101548.22;;;2.83;65.00
57990;BME280;58373;51.824;5.564;2023-04-06T05:09:57;101542.28;;;2.83;64.84
57990;BME280;58373;51.824;5.564;2023-04-06T05:12:23;101549.06;;;2.84;65.22
57990;BME280;58373;51.824;5.564;2023-04-06T05:14:48;101545.59;;;2.85;65.43
57990;BME280;58373;51.824;5.564;2023-04-06T05:17:13;101545.59;;;2.85;65.35
57990;BME280;58373;51.824;5.564;2023-04-06T05:19:39;101541.44;;;2.82;65.37
57990;BME280;58373;51.824;5.564;2023-04-06T05:22:04;101539.81;;;2.80;65.65
57990;BME280;58373;51.824;5.564;2023-04-06T05:24:29;101542.38;;;2.80;65.84
57990;BME280;58373;51.824;5.564;2023-04-06T05:26:55;101535.59;;;2.79;65.75
57990;BME280;58373;51.824;5.564;2023-04-06T05:29:20;101539.03;;;2.78;66.17
57990;BME280;58373;51.824;5.564;2023-04-06T05:31:46;101533.09;;;2.77;66.51
57990;BME280;58373;51.824;5.564;2023-04-06T05:34:11;101533.09;;;2.77;65.61
57990;BME280;58373;51.824;5.564;2023-04-06T05:36:37;101537.38;;;2.77;65.96
57990;BME280;58373;51.824;5.564;2023-04-06T05:39:02;101530.47;;;2.79;66.09
57990;BME280;58373;51.824;5.564;2023-04-06T05:41:28;101534.69;;;2.80;66.93
57990;BME280;58373;51.824;5.564;2023-04-06T05:43:53;101532.13;;;2.80;67.30
57990;BME280;58373;51.824;5.564;2023-04-06T05:46:18;101523.59;;;2.79;67.38
57990;BME280;58373;51.824;5.564;2023-04-06T05:48:43;101532.94;;;2.82;67.78
57990;BME280;58373;51.824;5.564;2023-04-06T05:51:08;101526.06;;;2.82;67.23
57990;BME280;58373;51.824;5.564;2023-04-06T05:53:34;101518.41;;;2.81;68.08
57990;BME280;58373;51.824;5.564;2023-04-06T05:56:02;101527.72;;;2.83;69.23
57990;BME280;58373;51.824;5.564;2023-04-06T05:58:28;101535.41;;;2.83;68.29
57990;BME280;58373;51.824;5.564;2023-04-06T06:00:57;101526.00;;;2.84;68.99
57990;BME280;58373;51.824;5.564;2023-04-06T06:03:22;101533.75;;;2.82;68.67
57990;BME280;58373;51.824;5.564;2023-04-06T06:05:47;101528.56;;;2.84;69.14
57990;BME280;58373;51.824;5.564;2023-04-06T06:08:13;101526.78;;;2.86;69.78
57990;BME280;58373;51.824;5.564;2023-04-06T06:10:38;101523.22;;;2.90;69.48
57990;BME280;58373;51.824;5.564;2023-04-06T06:13:04;101528.22;;;2.93;69.50
57990;BME280;58373;51.824;5.564;2023-04-06T06:15:29;101527.25;;;2.96;69.55
57990;BME280;58373;51.824;5.564;2023-04-06T06:17:55;101526.28;;;2.98;69.63
57990;BME280;58373;51.824;5.564;2023-04-06T06:20:20;101527.09;;;3.00;69.51
57990;BME280;58373;51.824;5.564;2023-04-06T06:22:45;101524.41;;;3.03;69.77
57990;BME280;58373;51.824;5.564;2023-04-06T06:25:10;101519.16;;;3.06;69.76
57990;BME280;58373;51.824;5.564;2023-04-06T06:27:35;101520.75;;;3.09;70.04
57990;BME280;58373;51.824;5.564;2023-04-06T06:30:02;101517.25;;;3.11;69.56
57990;BME280;58373;51.824;5.564;2023-04-06T06:32:27;101522.25;;;3.14;69.83
57990;BME280;58373;51.824;5.564;2023-04-06T06:34:52;101524.69;;;3.17;69.73
57990;BME280;58373;51.824;5.564;2023-04-06T06:37:17;101522.00;;;3.20;69.80
57990;BME280;58373;51.824;5.564;2023-04-06T06:39:43;101530.47;;;3.23;71.26
57990;BME280;58373;51.824;5.564;2023-04-06T06:42:08;101533.69;;;3.28;71.15
57990;BME280;58373;51.824;5.564;2023-04-06T06:44:33;101527.53;;;3.32;71.15
57990;BME280;58373;51.824;5.564;2023-04-06T06:46:58;101535.13;;;3.35;70.59
57990;BME280;58373;51.824;5.564;2023-04-06T06:49:24;101522.94;;;3.40;70.78
57990;BME280;58373;51.824;5.564;2023-04-06T06:51:49;101528.66;;;3.46;71.04
57990;BME280;58373;51.824;5.564;2023-04-06T06:54:14;101529.25;;;3.53;70.32
57990;BME280;58373;51.824;5.564;2023-04-06T06:56:40;101523.84;;;3.59;70.93
57990;BME280;58373;51.824;5.564;2023-04-06T06:59:05;101526.97;;;3.67;70.91
57990;BME280;58373;51.824;5.564;2023-04-06T07:01:33;101521.56;;;3.73;70.79
57990;BME280;58373;51.824;5.564;2023-04-06T07:03:59;101521.31;;;3.80;70.69
57990;BME280;58373;51.824;5.564;2023-04-06T07:06:24;101527.84;;;3.87;70.47
57990;BME280;58373;51.824;5.564;2023-04-06T07:08:50;101512.19;;;3.93;70.83
57990;BME280;58373;51.824;5.564;2023-04-06T07:11:15;101511.91;;;3.99;70.27
57990;BME280;58373;51.824;5.564;2023-04-06T07:13:41;101514.22;;;4.05;70.61
57990;BME280;58373;51.824;5.564;2023-04-06T07:16:07;101514.72;;;4.13;70.68
57990;BME280;58373;51.824;5.564;2023-04-06T07:18:32;101507.63;;;4.18;70.35
57990;BME280;58373;51.824;5.564;2023-04-06T07:20:57;101508.22;;;4.25;70.49
57990;BME280;58373;51.824;5.564;2023-04-06T07:23:22;101509.69;;;4.31;70.28
57990;BME280;58373;51.824;5.564;2023-04-06T07:25:47;101500.88;;;4.36;69.85
57990;BME280;58373;51.824;5.564;2023-04-06T07:28:15;101500.59;;;4.42;69.59
57990;BME280;58373;51.824;5.564;2023-04-06T07:30:41;101502.94;;;4.47;69.86
57990;BME280;58373;51.824;5.564;2023-04-06T07:33:07;101507.81;;;4.53;69.72
57990;BME280;58373;51.824;5.564;2023-04-06T07:35:32;101511.81;;;4.59;69.88
57990;BME280;58373;51.824;5.564;2023-04-06T07:37:57;101507.38;;;4.62;69.39
57990;BME280;58373;51.824;5.564;2023-04-06T07:40:22;101510.59;;;4.67;69.58
57990;BME280;58373;51.824;5.564;2023-04-06T07:42:48;101502.66;;;4.72;69.13
57990;BME280;58373;51.824;5.564;2023-04-06T07:45:14;101502.47;;;4.76;68.95
57990;BME280;58373;51.824;5.564;2023-04-06T07:47:40;101497.91;;;4.82;69.07
57990;BME280;58373;51.824;5.564;2023-04-06T07:50:05;101505.38;;;4.88;68.74
57990;BME280;58373;51.824;5.564;2023-04-06T07:52:31;101494.00;;;4.92;68.06
57990;BME280;58373;51.824;5.564;2023-04-06T07:54:59;101497.19;;;4.97;68.50
57990;BME280;58373;51.824;5.564;2023-04-06T07:57:25;101499.56;;;5.01;68.48
57990;BME280;58373;51.824;5.564;2023-04-06T07:59:50;101501.91;;;5.06;68.15
57990;BME280;58373;51.824;5.564;2023-04-06T08:02:15;101502.59;;;5.10;68.10
57990;BME280;58373;51.824;5.564;2023-04-06T08:04:40;101509.25;;;5.14;67.82
57990;BME280;58373;51.824;5.564;2023-04-06T08:07:06;101510.72;;;5.19;67.11
57990;BME280;58373;51.824;5.564;2023-04-06T08:09:31;101502.84;;;5.22;67.27
57990;BME280;58373;51.824;5.564;2023-04-06T08:11:57;101500.88;;;5.27;67.80
57990;BME280;58373;51.824;5.564;2023-04-06T08:14:22;101502.38;;;5.31;67.76
57990;BME280;58373;51.824;5.564;2023-04-06T08:16:47;101500.44;;;5.37;67.86
57990;BME280;58373;51.824;5.564;2023-04-06T08:19:12;101501.78;;;5.44;67.38
57990;BME280;58373;51.824;5.564;2023-04-06T08:21:38;101499.00;;;5.48;67.47
57990;BME280;58373;51.824;5.564;2023-04-06T08:24:05;101497.84;;;5.54;67.11
57990;BME280;58373;51.824;5.564;2023-04-06T08:26:30;101500.28;;;5.57;67.46
57990;BME280;58373;51.824;5.564;2023-04-06T08:28:56;101505.03;;;5.65;66.80
57990;BME280;58373;51.824;5.564;2023-04-06T08:31:21;101501.34;;;5.70;66.67
57990;BME280;58373;51.824;5.564;2023-04-06T08:33:46;101508.75;;;5.76;67.16
57990;BME280;58373;51.824;5.564;2023-04-06T08:36:12;101506.78;;;5.81;66.79
57990;BME280;58373;51.824;5.564;2023-04-06T08:38:38;101509.13;;;5.86;67.23
57990;BME280;58373;51.824;5.564;2023-04-06T08:41:08;101510.59;;;5.92;66.28
57990;BME280;58373;51.824;5.564;2023-04-06T08:43:35;101511.09;;;5.98;66.54
57990;BME280;58373;51.824;5.564;2023-04-06T08:46:01;101500.56;;;6.03;66.74
57990;BME280;58373;51.824;5.564;2023-04-06T08:48:27;101512.34;;;6.07;66.59
57990;BME280;58373;51.824;5.564;2023-04-06T08:50:53;101510.38;;;6.12;65.70
57990;BME280;58373;51.824;5.564;2023-04-06T08:53:19;101507.56;;;6.17;65.60
57990;BME280;58373;51.824;5.564;2023-04-06T08:55:45;101504.75;;;6.21;65.96
57990;BME280;58373;51.824;5.564;2023-04-06T08:58:11;101505.41;;;6.25;65.76
57990;BME280;58373;51.824;5.564;2023-04-06T09:00:37;101507.69;;;6.31;66.67
57990;BME280;58373;51.824;5.564;2023-04-06T09:03:03;101500.47;;;6.37;65.87
57990;BME280;58373;51.824;5.564;2023-04-06T09:05:28;101510.44;;;6.44;66.05
57990;BME280;58373;51.824;5.564;2023-04-06T09:07:54;101506.63;;;6.51;65.66
57990;BME280;58373;51.824;5.564;2023-04-06T09:10:19;101496.91;;;6.56;65.63
57990;BME280;58373;51.824;5.564;2023-04-06T09:12:45;101507.69;;;6.62;65.92
57990;BME280;58373;51.824;5.564;2023-04-06T09:15:18;101510.78;;;6.69;65.56
57990;BME280;58373;51.824;5.564;2023-04-06T09:17:43;101519.91;;;6.75;65.01
57990;BME280;58373;51.824;5.564;2023-04-06T09:20:08;101499.97;;;6.78;64.62
57990;BME280;58373;51.824;5.564;2023-04-06T09:22:37;101506.78;;;6.79;64.59
57990;BME280;58373;51.824;5.564;2023-04-06T09:25:03;101502.22;;;6.84;64.23
57990;BME280;58373;51.824;5.564;2023-04-06T09:27:32;101502.03;;;6.87;63.83
57990;BME280;58373;51.824;5.564;2023-04-06T09:30:04;101507.75;;;6.92;64.24
57990;BME280;58373;51.824;5.564;2023-04-06T09:32:30;101507.41;;;6.99;64.25
57990;BME280;58373;51.824;5.564;2023-04-06T09:35:06;101508.91;;;7.03;65.00
57990;BME280;58373;51.824;5.564;2023-04-06T09:37:31;101506.72;;;7.11;64.31
57990;BME280;58373;51.824;5.564;2023-04-06T09:40:06;101504.72;;;7.16;64.54
57990;BME280;58373;51.824;5.564;2023-04-06T09:42:35;101504.38;;;7.22;64.67
57990;BME280;58373;51.824;5.564;2023-04-06T09:45:01;101507.53;;;7.27;64.40
57990;BME280;58373;51.824;5.564;2023-04-06T09:47:26;101489.31;;;7.30;64.53
57990;BME280;58373;51.824;5.564;2023-04-06T09:49:55;101496.50;;;7.39;64.33
57990;BME280;58373;51.824;5.564;2023-04-06T09:52:21;101502.22;;;7.44;64.39
57990;BME280;58373;51.824;5.564;2023-04-06T09:54:47;101496.00;;;7.49;65.15
57990;BME280;58373;51.824;5.564;2023-04-06T10:00:07;101509.09;;;7.60;65.43
57990;BME280;58373;51.824;5.564;2023-04-06T10:05:19;101506.72;;;7.71;65.45
57990;BME280;58373;51.824;5.564;2023-04-06T10:07:45;101506.38;;;7.77;64.84
57990;BME280;58373;51.824;5.564;2023-04-06T10:10:11;101511.91;;;7.85;64.84
57990;BME280;58373;51.824;5.564;2023-04-06T10:12:39;101503.81;;;7.91;64.95
57990;BME280;58373;51.824;5.564;2023-04-06T10:15:05;101505.09;;;7.98;65.41
57990;BME280;58373;51.824;5.564;2023-04-06T10:17:30;101508.69;;;8.10;65.34
57990;BME280;58373;51.824;5.564;2023-04-06T10:19:59;101504.00;;;8.17;66.58
57990;BME280;58373;51.824;5.564;2023-04-06T10:22:36;101510.44;;;8.24;66.28
57990;BME280;58373;51.824;5.564;2023-04-06T10:25:04;101510.06;;;8.30;65.71
57990;BME280;58373;51.824;5.564;2023-04-06T10:27:29;101506.22;;;8.37;66.64
57990;BME280;58373;51.824;5.564;2023-04-06T10:29:55;101505.31;;;8.38;67.48
57990;BME280;58373;51.824;5.564;2023-04-06T10:32:31;101508.03;;;8.35;68.41
57990;BME280;58373;51.824;5.564;2023-04-06T10:35:04;101511.53;;;8.34;68.44
57990;BME280;58373;51.824;5.564;2023-04-06T10:37:45;101514.13;;;8.34;69.74
57990;BME280;58373;51.824;5.564;2023-04-06T10:42:45;101515.44;;;8.27;70.81
57990;BME280;58373;51.824;5.564;2023-04-06T10:45:21;101512.09;;;8.25;70.61
57990;BME280;58373;51.824;5.564;2023-04-06T10:47:46;101510.81;;;8.18;71.79
57990;BME280;58373;51.824;5.564;2023-04-06T10:50:13;101512.66;;;8.16;72.98
57990;BME280;58373;51.824;5.564;2023-04-06T10:52:39;101509.31;;;8.14;73.52
57990;BME280;58373;51.824;5.564;2023-04-06T10:55:05;101519.88;;;8.11;73.13
57990;BME280;58373;51.824;5.564;2023-04-06T10:57:31;101515.06;;;8.05;73.96
57990;BME280;58373;51.824;5.564;2023-04-06T10:59:57;101511.09;;;7.99;74.43
57990;BME280;58373;51.824;5.564;2023-04-06T11:02:23;101507.13;;;7.93;74.84
57990;BME280;58373;51.824;5.564;2023-04-06T11:04:55;101505.47;;;7.92;78.68
57990;BME280;58373;51.824;5.564;2023-04-06T11:07:27;101502.78;;;7.94;77.76
57990;BME280;58373;51.824;5.564;2023-04-06T11:09:54;101502.69;;;7.95;76.90
57990;BME280;58373;51.824;5.564;2023-04-06T11:12:26;101505.47;;;7.92;76.72
57990;BME280;58373;51.824;5.564;2023-04-06T11:14:52;101508.78;;;7.94;76.39
57990;BME280;58373;51.824;5.564;2023-04-06T11:17:18;101498.66;;;7.91;77.17
57990;BME280;58373;51.824;5.564;2023-04-06T11:19:50;101498.66;;;7.91;76.41
57990;BME280;58373;51.824;5.564;2023-04-06T11:22:15;101504.34;;;7.82;77.39
57990;BME280;58373;51.824;5.564;2023-04-06T11:24:41;101499.19;;;7.82;77.38
57990;BME280;58373;51.824;5.564;2023-04-06T11:27:06;101487.19;;;7.81;78.72
57990;BME280;58373;51.824;5.564;2023-04-06T11:29:32;101494.47;;;7.75;79.58
57990;BME280;58373;51.824;5.564;2023-04-06T11:34:24;101489.59;;;7.70;80.18
57990;BME280;58373;51.824;5.564;2023-04-06T11:36:59;101494.19;;;7.65;79.49
57990;BME280;58373;51.824;5.564;2023-04-06T11:39:26;101477.97;;;7.63;80.01
57990;BME280;58373;51.824;5.564;2023-04-06T11:41:53;101487.44;;;7.62;80.91
57990;BME280;58373;51.824;5.564;2023-04-06T11:44:32;101475.53;;;7.60;81.82
57990;BME280;58373;51.824;5.564;2023-04-06T11:46:57;101469.81;;;7.55;80.84
57990;BME280;58373;51.824;5.564;2023-04-06T11:49:26;101468.31;;;7.51;80.19
57990;BME280;58373;51.824;5.564;2023-04-06T11:51:51;101471.09;;;7.48;80.98
57990;BME280;58373;51.824;5.564;2023-04-06T11:54:16;101466.03;;;7.46;82.25
57990;BME280;58373;51.824;5.564;2023-04-06T11:56:42;101463.34;;;7.48;81.85
57990;BME280;58373;51.824;5.564;2023-04-06T11:59:11;101463.53;;;7.44;81.43
57990;BME280;58373;51.824;5.564;2023-04-06T12:01:44;101462.69;;;7.44;81.37
57990;BME280;58373;51.824;5.564;2023-04-06T12:04:09;101466.31;;;7.41;81.31
57990;BME280;58373;51.824;5.564;2023-04-06T12:06:34;101465.53;;;7.39;81.92
57990;BME280;58373;51.824;5.564;2023-04-06T12:09:00;101457.06;;;7.37;82.61
57990;BME280;58373;51.824;5.564;2023-04-06T12:11:25;101462.47;;;7.33;81.58
57990;BME280;58373;51.824;5.564;2023-04-06T12:13:50;101458.16;;;7.33;83.34
57990;BME280;58373;51.824;5.564;2023-04-06T12:16:16;101447.75;;;7.35;83.09
57990;BME280;58373;51.824;5.564;2023-04-06T12:18:41;101452.09;;;7.34;82.85
57990;BME280;58373;51.824;5.564;2023-04-06T12:21:06;101450.25;;;7.36;85.02
57990;BME280;58373;51.824;5.564;2023-04-06T12:23:31;101448.41;;;7.38;83.56
57990;BME280;58373;51.824;5.564;2023-04-06T12:25:57;101444.72;;;7.42;83.29
57990;BME280;58373;51.824;5.564;2023-04-06T12:28:22;101439.56;;;7.42;84.87
57990;BME280;58373;51.824;5.564;2023-04-06T12:30:51;101446.56;;;7.40;84.39
57990;BME280;58373;51.824;5.564;2023-04-06T12:33:16;101453.41;;;7.41;84.26
57990;BME280;58373;51.824;5.564;2023-04-06T12:35:42;101445.66;;;7.41;83.93
57990;BME280;58373;51.824;5.564;2023-04-06T12:38:07;101440.28;;;7.44;84.53
57990;BME280;58373;51.824;5.564;2023-04-06T12:40:36;101441.97;;;7.45;86.11
57990;BME280;58373;51.824;5.564;2023-04-06T12:43:01;101439.19;;;7.49;85.33
57990;BME280;58373;51.824;5.564;2023-04-06T12:45:26;101428.88;;;7.49;84.49
57990;BME280;58373;51.824;5.564;2023-04-06T12:47:51;101422.88;;;7.48;85.32
57990;BME280;58373;51.824;5.564;2023-04-06T12:50:16;101434.88;;;7.49;86.48
57990;BME280;58373;51.824;5.564;2023-04-06T12:52:42;101430.53;;;7.50;84.95
57990;BME280;58373;51.824;5.564;2023-04-06T12:55:07;101425.38;;;7.50;84.88
57990;BME280;58373;51.824;5.564;2023-04-06T12:57:32;101425.56;;;7.47;84.92
57990;BME280;58373;51.824;5.564;2023-04-06T12:59:58;101421.22;;;7.47;86.74
57990;BME280;58373;51.824;5.564;2023-04-06T13:02:23;101421.34;;;7.45;86.99
57990;BME280;58373;51.824;5.564;2023-04-06T13:04:49;101417.06;;;7.44;86.91